Midland, MI (48640)

1:45 PM EST on January 31, 2015 (GMT -0500)
Central Midland School | Change Station
CLOSE
Current Station
Personal Weather Station
Location: Midland, MI
Elevation: 640 ft
Nearby Weather Stations

Elev 640 ft 43.62 °N, 84.23 °W | Updated 3 minutes ago

Overcast
Overcast
31.6 °F
Feels Like 32 °F
N
0.0
Wind Variable Wind from SSW
Gusts 5.0 mph

Today
High -- | Low -- °F
--% Chance of Precip.
Yesterday
High -- | Low -- °F
Precip. -- in
7:54 AM 5:46 PM
Waxing Gibbous, 91% visible
Pressure 30.14 in
Visibility 10.0 miles
Clouds Scattered Clouds 2200 ft
Scattered Clouds 2700 ft
Overcast 4200 ft
Windchill 32 °F
Dew Point 25 °F
Humidity 77%
Rainfall 0.00 in
Snow Depth Not available.
UV 0.0 out of 12
Pollen .10 out of 12
Air Quality Not available.
Flu Activity Not available.
METAR KIKW 311834Z AUTO 23005KT 10SM SCT022 SCT027 OVC042 M01/M05 A3014 RMK AO2 T10061054

More Conditions Fewer Conditions

Pressure 30.14 in
Visibility 10.0 miles
Clouds Scattered Clouds 2200 ft
Scattered Clouds 2700 ft
Overcast 4200 ft
Windchill 32 °F
Dew Point 25 °F
Humidity 77%
Rainfall 0.00 in
Snow Depth Not available.
UV 0.0 out of 12
Pollen .10 out of 12
Air Quality Not available.
Flu Activity Not available.
METAR KIKW 311834Z AUTO 23005KT 10SM SCT022 SCT027 OVC042 M01/M05 A3014 RMK AO2 T10061054

More Conditions Fewer Conditions

10-Day Weather Forecast

Almanac

Astronomy

Jan. 31, 2015 Rise Set
Actual Time
Civil Twilight
Nautical Twilight
Astronomical Twilight
Moon
Length of Visible Light
Length of Day
Tomorrow will be .
, % of the Moon is Illuminated

Today's Extremes

State Highs State Lows

Community

WunderPhotos

Upload Photos

1,792,149 photos uploaded!

WunderBlogs® & News

Nearby

Air Quality

  Air Quality AQ Index Pollutant
Not available.

Snow Depth

Station Depth Elevation

Earthquake Activity

City Distance Mag. Time & Date
Minimum magnitude displayed is 2.5.

Coastal Water Temperatures

Place Temperature

Nearby Weather Stations